Towanda, Illinois
Current Conditions -  °F | °C
As of 8:56 PM on Tuesday 25 Nov 2014 (Local Time) from KBMI Reporting Station
Clear Clear  
Wind Chill: 12°   Ceiling: Unl
Heat Index: 21°   Visibility: 10mi
Dew Point: 19°   Wind: 7mph
Humidity: 92%   Direction: 120°ESE
Pressure: 30.19"   Gusts: NA
Location:  40.56°N, 88.9°W
Report Text: KBMI 260256Z 12006KT 10SM CLR M06/M07 A3019 RMK AO2 53006 T10611072 SLP247
Loading
Personal Weather Stations






























Interactive Weather Map New forecast layout! Learn more

10-Day Weather Forecast

Advertisements
Track Severe Weather on mobile